createdAt,value
2022-08-28T00:04:14.613Z,101260.34
2022-08-28T00:09:18.949Z,101262.34
2022-08-28T00:14:22.190Z,101270.72
2022-08-28T00:19:25.580Z,101266.59
2022-08-28T00:24:31.243Z,101270.09
2022-08-28T00:29:34.050Z,101260.94
2022-08-28T00:34:37.188Z,101266.97
2022-08-28T00:39:41.399Z,101266.41
2022-08-28T00:44:45.280Z,101251.03
2022-08-28T00:49:52.792Z,101258.50
2022-08-28T00:55:07.867Z,101263.63
2022-08-28T01:00:14.017Z,101266.03
2022-08-28T01:05:18.327Z,101258.16
2022-08-28T01:10:25.816Z,101256.19
2022-08-28T01:15:32.704Z,101261.38
2022-08-28T01:20:37.841Z,101263.06
2022-08-28T01:25:43.288Z,101267.03
2022-08-28T01:30:48.869Z,101269.38
2022-08-28T01:35:51.766Z,101268.22
2022-08-28T01:40:57.800Z,101271.09
2022-08-28T01:46:04.357Z,101270.53
2022-08-28T01:51:07.278Z,101279.59
2022-08-28T01:56:14.770Z,101280.59
2022-08-28T02:01:21.083Z,101277.19
2022-08-28T02:06:25.692Z,101286.34
2022-08-28T02:11:30.651Z,101289.31
2022-08-28T02:16:33.612Z,101289.56
2022-08-28T02:21:36.503Z,101291.19
2022-08-28T02:26:40.770Z,101285.78
2022-08-28T02:31:43.586Z,101288.22
2022-08-28T02:36:46.522Z,101264.06
2022-08-28T02:41:50.712Z,101271.84
2022-08-28T02:46:53.780Z,101267.13
2022-08-28T02:51:57.647Z,101269.44
2022-08-28T02:57:02.186Z,101273.75
2022-08-28T03:02:07.208Z,101276.19
2022-08-28T03:07:12.610Z,101277.44
2022-08-28T03:12:17.061Z,101278.53
2022-08-28T03:17:20.359Z,101281.66
2022-08-28T03:22:43.855Z,101283.63
2022-08-28T03:27:48.080Z,101283.88
2022-08-28T03:32:51.388Z,101278.66
2022-08-28T03:37:54.209Z,101279.78
2022-08-28T03:42:58.557Z,101280.31
2022-08-28T03:48:03.807Z,101280.09
2022-08-28T03:53:07.258Z,101279.50
2022-08-28T03:58:11.887Z,101271.69
2022-08-28T04:03:22.186Z,101281.53
2022-08-28T04:08:25.296Z,101269.13
2022-08-28T04:13:30.403Z,101279.03
2022-08-28T04:18:33.218Z,101274.94
2022-08-28T04:23:36.600Z,101279.88
2022-08-28T04:28:40.879Z,101286.69
2022-08-28T04:33:43.756Z,101289.50
2022-08-28T04:38:46.998Z,101281.25
2022-08-28T04:43:52.775Z,101281.50
2022-08-28T04:48:56.688Z,101290.13
2022-08-28T04:54:00.117Z,101293.06
2022-08-28T04:59:04.943Z,101295.13
2022-08-28T05:04:07.998Z,101294.03
2022-08-28T05:09:10.818Z,101292.94
2022-08-28T05:14:16.510Z,101305.13
2022-08-28T05:19:22.006Z,101301.03
2022-08-28T05:24:25.336Z,101318.41
2022-08-28T05:29:29.773Z,101318.84
2022-08-28T05:34:32.756Z,101320.75
2022-08-28T05:39:35.744Z,101308.19
2022-08-28T05:44:40.009Z,101321.97
2022-08-28T05:49:43.002Z,101320.97
2022-08-28T05:54:45.868Z,101319.97
2022-08-28T05:59:50.255Z,101323.19
2022-08-28T06:04:53.714Z,101320.38
2022-08-28T06:09:56.589Z,101324.38
2022-08-28T06:15:00.912Z,101321.13
2022-08-28T06:20:04.298Z,101322.50
2022-08-28T06:25:09.312Z,101329.81
2022-08-28T06:30:14.180Z,101335.13
2022-08-28T06:35:17.304Z,101328.03
2022-08-28T06:40:20.196Z,101329.31
2022-08-28T06:45:24.570Z,101340.81
2022-08-28T06:50:27.376Z,101342.19
2022-08-28T06:55:30.181Z,101342.06
2022-08-28T07:00:35.631Z,101342.06
2022-08-28T07:05:38.537Z,101335.38
2022-08-28T07:10:41.353Z,101337.78
2022-08-28T07:15:45.930Z,101344.03
2022-08-28T07:20:57.626Z,101334.59
2022-08-28T07:26:03.508Z,101325.25
2022-08-28T07:31:10.804Z,101342.34
2022-08-28T07:36:16.077Z,101337.78
2022-08-28T07:41:35.469Z,101341.25
2022-08-28T07:46:41.003Z,101340.50
2022-08-28T07:51:46.693Z,101359.84
2022-08-28T07:56:49.916Z,101369.13
2022-08-28T08:01:54.477Z,101361.72
2022-08-28T08:06:58.280Z,101364.41
2022-08-28T08:12:01.293Z,101370.56
2022-08-28T08:17:07.364Z,101379.88
2022-08-28T08:22:10.776Z,101376.03
2022-08-28T08:27:13.633Z,101375.56
2022-08-28T08:32:17.910Z,101380.53
2022-08-28T08:37:20.710Z,101377.38
2022-08-28T08:42:27.405Z,101387.72
2022-08-28T08:47:39.339Z,101380.50
2022-08-28T08:52:53.144Z,101376.09
2022-08-28T08:58:06.076Z,101367.22
2022-08-28T09:03:16.044Z,101377.25
2022-08-28T09:08:27.600Z,101373.75
2022-08-28T09:13:41.556Z,101381.66
2022-08-28T09:18:48.429Z,101389.28
2022-08-28T09:23:53.330Z,101379.13
2022-08-28T09:29:05.194Z,101379.16
2022-08-28T09:34:23.832Z,101390.59
2022-08-28T09:39:29.173Z,101393.72
2022-08-28T09:44:32.514Z,101388.06
2022-08-28T09:49:37.006Z,101399.63
2022-08-28T09:54:44.720Z,101397.19
2022-08-28T09:59:47.403Z,101391.63
2022-08-28T10:04:59.961Z,101397.00
2022-08-28T10:10:22.148Z,101387.03
2022-08-28T10:15:31.239Z,101389.50
2022-08-28T10:20:47.912Z,101393.53
2022-08-28T10:25:57.978Z,101397.31
2022-08-28T10:31:08.243Z,101401.53
2022-08-28T10:36:33.603Z,101402.03
2022-08-28T10:41:44.266Z,101416.13
2022-08-28T10:46:51.953Z,101423.25
2022-08-28T10:52:02.310Z,101425.59
2022-08-28T10:57:25.424Z,101416.84
2022-08-28T11:02:31.032Z,101425.03
2022-08-28T11:07:39.318Z,101417.88
2022-08-28T11:12:44.318Z,101418.91
2022-08-28T11:17:51.732Z,101413.44
2022-08-28T11:23:00.576Z,101415.06
2022-08-28T11:28:17.627Z,101422.94
2022-08-28T11:33:39.945Z,101414.09
2022-08-28T11:39:06.053Z,101421.19
2022-08-28T11:44:28.222Z,101424.94
2022-08-28T11:49:44.117Z,101414.97
2022-08-28T11:54:59.992Z,101416.97
2022-08-28T12:00:11.505Z,101422.53
2022-08-28T12:05:45.901Z,101416.69
2022-08-28T12:10:59.588Z,101422.19
2022-08-28T12:16:07.552Z,101436.72
2022-08-28T12:21:17.576Z,101420.00
2022-08-28T12:26:26.166Z,101413.81
2022-08-28T12:32:15.100Z,101418.53
2022-08-28T12:37:27.320Z,101416.28
2022-08-28T12:42:36.449Z,101412.69
2022-08-28T12:47:44.562Z,101420.78
2022-08-28T12:52:50.629Z,101413.19
2022-08-28T12:57:55.511Z,101418.16
2022-08-28T13:02:58.629Z,101422.31
2022-08-28T13:08:05.315Z,101416.06
2022-08-28T13:13:19.467Z,101409.25
2022-08-28T13:18:46.305Z,101416.31
2022-08-28T13:23:51.191Z,101413.69
2022-08-28T13:28:55.942Z,101403.25
2022-08-28T13:34:11.243Z,101405.56
2022-08-28T13:39:16.307Z,101412.94
2022-08-28T13:44:30.457Z,101411.16
2022-08-28T13:49:34.115Z,101410.28
2022-08-28T13:54:37.744Z,101398.72
2022-08-28T13:59:45.823Z,101400.69
2022-08-28T14:04:48.658Z,101399.88
2022-08-28T14:09:55.981Z,101401.44
2022-08-28T14:15:00.401Z,101395.59
2022-08-28T14:20:03.745Z,101403.53
2022-08-28T14:25:09.386Z,101410.75
2022-08-28T14:30:14.602Z,101406.84
2022-08-28T14:35:17.459Z,101393.81
2022-08-28T14:40:20.681Z,101415.22
2022-08-28T14:45:24.899Z,101405.66
2022-08-28T14:50:28.005Z,101400.22
2022-08-28T14:55:30.963Z,101398.44
2022-08-28T15:00:40.539Z,101405.69
2022-08-28T15:05:43.857Z,101413.13
2022-08-28T15:10:48.520Z,101415.25
2022-08-28T15:16:02.350Z,101417.13
2022-08-28T15:21:07.610Z,101420.88
2022-08-28T15:26:15.152Z,101423.34
2022-08-28T15:31:19.585Z,101422.03
2022-08-28T15:36:23.275Z,101421.28
2022-08-28T15:41:26.332Z,101424.66
2022-08-28T15:46:33.650Z,101420.56
2022-08-28T15:51:36.944Z,101424.38
2022-08-28T15:56:41.561Z,101422.59
2022-08-28T16:01:45.914Z,101425.41
2022-08-28T16:06:48.913Z,101425.28
2022-08-28T16:11:59.636Z,101426.66
2022-08-28T16:17:05.771Z,101417.91
2022-08-28T16:22:15.925Z,101428.47
2022-08-28T16:27:19.035Z,101429.41
2022-08-28T16:32:23.853Z,101445.28
2022-08-28T16:37:37.731Z,101443.75
2022-08-28T16:42:51.434Z,101434.41
2022-08-28T16:47:56.499Z,101439.50
2022-08-28T16:53:03.532Z,101433.59
2022-08-28T16:58:09.313Z,101437.31
2022-08-28T17:03:14.140Z,101445.25
2022-08-28T17:08:18.582Z,101448.06
2022-08-28T17:13:21.508Z,101444.34
2022-08-28T17:18:25.813Z,101441.66
2022-08-28T17:23:28.661Z,101442.25
2022-08-28T17:28:32.167Z,101437.63
2022-08-28T17:33:37.064Z,101441.38
2022-08-28T17:38:40.781Z,101443.19
2022-08-28T17:43:44.267Z,101433.22
2022-08-28T17:48:56.107Z,101440.34
2022-08-28T17:53:59.406Z,101447.59
2022-08-28T17:59:04.284Z,101452.13
2022-08-28T18:04:08.948Z,101451.94
2022-08-28T18:09:12.002Z,101456.56
2022-08-28T18:14:14.781Z,101458.97
2022-08-28T18:19:19.029Z,101470.06
2022-08-28T18:24:22.078Z,101479.53
2022-08-28T18:29:25.058Z,101476.34
2022-08-28T18:34:30.014Z,101471.31
2022-08-28T18:39:35.738Z,101477.69
2022-08-28T18:44:38.634Z,101481.09
2022-08-28T18:49:43.194Z,101468.56
2022-08-28T18:54:46.124Z,101476.44
2022-08-28T18:59:50.588Z,101485.59
2022-08-28T19:04:54.912Z,101487.38
2022-08-28T19:10:01.046Z,101491.41
2022-08-28T19:15:04.385Z,101490.91
2022-08-28T19:20:12.747Z,101489.41
2022-08-28T19:25:27.408Z,101498.97
2022-08-28T19:30:34.469Z,101495.88
2022-08-28T19:35:38.987Z,101496.50
2022-08-28T19:40:42.987Z,101496.69
2022-08-28T19:45:46.800Z,101496.50
2022-08-28T19:51:01.907Z,101498.16
2022-08-28T19:56:06.137Z,101482.88
2022-08-28T20:01:09.495Z,101492.28
2022-08-28T20:06:13.860Z,101497.53
2022-08-28T20:11:19.572Z,101502.00
2022-08-28T20:16:22.599Z,101499.16
2022-08-28T20:21:37.238Z,101498.94
2022-08-28T20:26:41.593Z,101499.31
2022-08-28T20:31:47.926Z,101499.09
2022-08-28T20:36:52.587Z,101494.91
2022-08-28T20:41:55.603Z,101489.75
2022-08-28T20:46:58.761Z,101498.94
2022-08-28T20:52:04.652Z,101492.47
2022-08-28T20:57:10.008Z,101494.59
2022-08-28T21:02:15.058Z,101489.91
2022-08-28T21:07:21.793Z,101496.38
2022-08-28T21:12:25.199Z,101503.56
2022-08-28T21:17:30.157Z,101507.94
2022-08-28T21:22:35.233Z,101502.81
2022-08-28T21:27:39.283Z,101507.19
2022-08-28T21:32:42.479Z,101499.25
2022-08-28T21:37:49.080Z,101507.00
2022-08-28T21:42:51.952Z,101504.56
2022-08-28T21:47:54.861Z,101487.66
2022-08-28T21:52:59.405Z,101477.75
2022-08-28T21:58:02.251Z,101487.88
2022-08-28T22:03:05.411Z,101506.84
2022-08-28T22:08:09.612Z,101522.59
2022-08-28T22:13:14.371Z,101512.22
2022-08-28T22:18:17.623Z,101517.69
2022-08-28T22:23:21.921Z,101525.81
2022-08-28T22:28:24.799Z,101523.47
2022-08-28T22:33:27.570Z,101523.19
2022-08-28T22:38:32.168Z,101528.25
2022-08-28T22:43:36.162Z,101528.31
2022-08-28T22:48:39.280Z,101526.47
2022-08-28T22:53:44.268Z,101529.47
2022-08-28T22:58:47.119Z,101526.44
2022-08-28T23:03:51.159Z,101534.47
2022-08-28T23:08:55.402Z,101528.09
2022-08-28T23:13:58.266Z,101524.31
2022-08-28T23:19:08.933Z,101518.59
2022-08-28T23:24:15.568Z,101514.09
2022-08-28T23:29:18.473Z,101515.66
2022-08-28T23:34:22.641Z,101506.25
2022-08-28T23:39:27.813Z,101498.88
2022-08-28T23:44:30.656Z,101500.91
2022-08-28T23:49:33.964Z,101501.66
2022-08-28T23:54:45.802Z,101491.94
2022-08-28T23:59:48.949Z,101493.63
